Time;durP1;ratioP1;P1;durP2;ratioP2;P2;SDS_P1;SDS_P2;PMS_P1;PMS_P2;Temp;Humidity;BMP_temperature;BMP_pressure;BME280_temperature;BME280_humidity;BME280_pressure;Samples;Min_cycle;Max_cycle;Signal;HPM_P1;HPM_P2
2023/12/21 00:00:41;;;;;;;28.13;6.22;;;;;;;;;;5009571;28;20054;-58
2023/12/21 00:03:08;;;;;;;30.83;5.90;;;;;;;;;;5012946;28;21177;-58
2023/12/21 00:05:42;;;;;;;27.38;5.85;;;;;;;;;;5010568;28;20057;-61
2023/12/21 00:08:09;;;;;;;29.30;5.70;;;;;;;;;;5014032;28;20103;-60
2023/12/21 00:10:43;;;;;;;22.13;5.07;;;;;;;;;;5009307;28;20064;-61
2023/12/21 00:13:10;;;;;;;39.65;5.47;;;;;;;;;;5012144;28;20132;-60
2023/12/21 00:16:04;;;;;;;29.75;4.97;;;;;;;;;;5010025;28;20151;-61
2023/12/21 00:18:31;;;;;;;42.10;5.07;;;;;;;;;;5008675;28;20065;-60
2023/12/21 00:20:59;;;;;;;35.78;5.45;;;;;;;;;;5012802;28;20053;-60
2023/12/21 00:23:40;;;;;;;40.20;5.30;;;;;;;;;;5012278;28;20056;-63
2023/12/21 00:26:13;;;;;;;30.77;5.65;;;;;;;;;;5008523;28;20509;-63
2023/12/21 00:28:47;;;;;;;28.08;5.43;;;;;;;;;;4998508;28;20060;-63
2023/12/21 00:31:21;;;;;;;28.45;5.95;;;;;;;;;;5009849;28;20057;-63
2023/12/21 00:33:48;;;;;;;28.67;5.88;;;;;;;;;;5004751;28;20054;-60
2023/12/21 00:36:16;;;;;;;25.90;6.07;;;;;;;;;;5007073;28;20148;-60
2023/12/21 00:38:50;;;;;;;34.63;5.75;;;;;;;;;;5009260;28;20662;-61
2023/12/21 00:41:24;;;;;;;26.80;5.70;;;;;;;;;;5004843;28;20053;-60
2023/12/21 00:43:52;;;;;;;25.73;5.60;;;;;;;;;;5001087;28;20085;-60
2023/12/21 00:46:19;;;;;;;33.40;5.65;;;;;;;;;;5005993;28;20400;-62
2023/12/21 00:48:53;;;;;;;30.02;6.03;;;;;;;;;;5005417;28;20049;-60
2023/12/21 00:51:21;;;;;;;29.33;5.85;;;;;;;;;;5006763;28;21704;-59
2023/12/21 00:53:55;;;;;;;32.80;6.40;;;;;;;;;;5010642;28;20528;-59
2023/12/21 00:56:22;;;;;;;;;;;;;;;;;;5013569;28;20127;-51
2023/12/21 00:58:49;;;;;;;21.95;5.45;;;;;;;;;;5007986;28;20323;-49
2023/12/21 01:01:23;;;;;;;30.15;7.18;;;;;;;;;;4992265;28;20064;-50
2023/12/21 01:03:50;;;;;;;32.53;5.20;;;;;;;;;;5004819;28;20062;-52
2023/12/21 01:06:17;;;;;;;34.80;5.65;;;;;;;;;;4986787;28;20180;-52
2023/12/21 01:08:51;;;;;;;37.00;6.40;;;;;;;;;;5010865;28;20061;-53
2023/12/21 01:11:18;;;;;;;29.38;6.00;;;;;;;;;;5005619;28;20057;-63
2023/12/21 01:13:45;;;;;;;;;;;;;;;;;;5006574;28;20084;-63
2023/12/21 01:16:19;;;;;;;26.33;5.28;;;;;;;;;;5006731;28;19980;-63
2023/12/21 01:18:46;;;;;;;32.53;6.03;;;;;;;;;;5006070;28;20099;-63
2023/12/21 01:21:14;;;;;;;27.27;5.57;;;;;;;;;;5001230;28;20199;-53
2023/12/21 01:23:55;;;;;;;28.00;6.28;;;;;;;;;;5012562;28;20528;-60
2023/12/21 01:26:22;;;;;;;24.92;5.97;;;;;;;;;;5007164;28;20385;-59
2023/12/21 01:28:56;;;;;;;30.48;5.82;;;;;;;;;;5005902;28;20658;-60
2023/12/21 01:31:23;;;;;;;;;;;;;;;;;;5004119;28;20427;-59
2023/12/21 01:33:50;;;;;;;27.40;5.10;;;;;;;;;;5004987;28;20053;-59
2023/12/21 01:36:26;;;;;;;24.27;5.13;;;;;;;;;;5005789;28;20080;-60
2023/12/21 01:38:57;;;;;;;24.48;5.15;;;;;;;;;;5005268;28;20229;-54
2023/12/21 01:41:31;;;;;;;19.67;4.90;;;;;;;;;;5009890;28;20054;-52
2023/12/21 01:43:58;;;;;;;33.00;5.78;;;;;;;;;;5004089;28;20061;-50
2023/12/21 01:46:26;;;;;;;29.60;6.10;;;;;;;;;;5002476;28;20048;-54
2023/12/21 01:49:01;;;;;;;21.98;5.57;;;;;;;;;;5003524;28;20495;-60
2023/12/21 01:51:28;;;;;;;;;;;;;;;;;;5003913;28;20060;-60
2023/12/21 01:54:03;;;;;;;26.63;5.32;;;;;;;;;;5013360;28;19940;-56
2023/12/21 01:56:33;;;;;;;22.92;5.82;;;;;;;;;;5011460;28;20064;-56
2023/12/21 01:59:01;;;;;;;30.05;5.68;;;;;;;;;;5005649;28;20551;-54
2023/12/21 02:01:35;;;;;;;24.25;5.05;;;;;;;;;;5004947;28;20058;-55
2023/12/21 02:04:03;;;;;;;28.27;5.43;;;;;;;;;;5010806;28;20049;-55
2023/12/21 02:06:38;;;;;;;25.20;4.95;;;;;;;;;;5006742;28;20124;-67
2023/12/21 02:09:06;;;;;;;23.77;5.45;;;;;;;;;;5014081;28;20054;-69
2023/12/21 02:11:33;;;;;;;27.83;5.35;;;;;;;;;;5012689;28;20214;-69
2023/12/21 02:14:07;;;;;;;33.53;5.53;;;;;;;;;;5006556;28;20053;-69
2023/12/21 02:16:58;;;;;;;26.25;4.85;;;;;;;;;;5009971;28;20061;-68
2023/12/21 02:19:32;;;;;;;35.95;8.32;;;;;;;;;;4996524;28;20049;-49
2023/12/21 02:21:59;;;;;;;;;;;;;;;;;;5008559;28;20061;-64
2023/12/21 02:24:35;;;;;;;26.05;5.28;;;;;;;;;;4992168;28;20299;-63
2023/12/21 02:27:09;;;;;;;35.75;5.25;;;;;;;;;;4991307;28;20490;-63
2023/12/21 02:29:37;;;;;;;20.20;4.53;;;;;;;;;;4992443;28;20086;-63
2023/12/21 02:32:10;;;;;;;37.70;5.88;;;;;;;;;;4998654;28;20054;-63
2023/12/21 02:34:37;;;;;;;27.63;5.22;;;;;;;;;;4994461;28;20388;-63
2023/12/21 02:37:04;;;;;;;30.75;6.03;;;;;;;;;;4998727;28;20056;-56
2023/12/21 02:39:38;;;;;;;26.10;5.75;;;;;;;;;;4989512;28;20168;-56
2023/12/21 02:42:05;;;;;;;24.80;5.13;;;;;;;;;;4993940;28;20049;-58
2023/12/21 02:44:39;;;;;;;25.90;5.00;;;;;;;;;;4985369;28;20790;-56
2023/12/21 02:47:06;;;;;;;19.65;5.25;;;;;;;;;;4992372;28;20148;-63
2023/12/21 02:49:40;;;;;;;30.02;4.90;;;;;;;;;;4988102;28;20073;-59
2023/12/21 02:52:07;;;;;;;28.60;5.53;;;;;;;;;;4993739;28;20516;-59
2023/12/21 02:54:34;;;;;;;;;;;;;;;;;;4997454;28;20053;-60
2023/12/21 02:57:08;;;;;;;24.23;4.97;;;;;;;;;;4997801;28;20023;-59
2023/12/21 02:59:35;;;;;;;25.30;5.07;;;;;;;;;;4993831;28;20164;-59
2023/12/21 03:02:02;;;;;;;34.25;5.68;;;;;;;;;;4995045;28;20204;-59
2023/12/21 03:04:36;;;;;;;28.98;5.15;;;;;;;;;;4991512;28;20056;-59
2023/12/21 03:07:03;;;;;;;21.58;4.95;;;;;;;;;;4995756;28;21180;-59
2023/12/21 03:09:37;;;;;;;25.17;4.68;;;;;;;;;;4989823;28;20387;-59
2023/12/21 03:12:05;;;;;;;26.50;5.38;;;;;;;;;;4994358;28;20152;-60
2023/12/21 03:14:32;;;;;;;27.27;5.60;;;;;;;;;;4994497;28;20054;-52
2023/12/21 03:17:06;;;;;;;27.63;6.80;;;;;;;;;;4991998;28;20081;-59
2023/12/21 03:19:34;;;;;;;35.92;5.50;;;;;;;;;;4992306;28;20250;-59
2023/12/21 03:22:14;;;;;;;29.42;5.85;;;;;;;;;;4999303;28;20065;-59
2023/12/21 03:24:47;;;;;;;25.15;4.68;;;;;;;;;;5000067;28;20057;-60
2023/12/21 03:27:21;;;;;;;25.13;5.30;;;;;;;;;;5013022;28;20061;-59
2023/12/21 03:29:55;;;;;;;25.67;5.55;;;;;;;;;;5013494;28;20065;-59
2023/12/21 03:32:23;;;;;;;31.73;4.57;;;;;;;;;;5005171;28;20077;-56
2023/12/21 03:34:50;;;;;;;;;;;;;;;;;;5005371;28;20045;-56
2023/12/21 03:37:28;;;;;;;20.13;4.80;;;;;;;;;;5006413;28;19929;-58
2023/12/21 03:40:02;;;;;;;;;;;;;;;;;;5006227;28;20054;-57
2023/12/21 03:42:29;;;;;;;24.65;4.15;;;;;;;;;;5004585;28;19936;-60
2023/12/21 03:44:56;;;;;;;30.27;5.63;;;;;;;;;;5012312;28;20104;-67
2023/12/21 03:47:30;;;;;;;34.67;5.20;;;;;;;;;;5008838;28;20079;-58
2023/12/21 03:49:57;;;;;;;34.63;5.75;;;;;;;;;;5007882;28;20128;-57
2023/12/21 03:52:25;;;;;;;31.15;5.57;;;;;;;;;;5006160;28;20057;-57
2023/12/21 03:54:58;;;;;;;20.73;5.10;;;;;;;;;;5010096;28;20053;-56
2023/12/21 03:57:25;;;;;;;26.40;4.68;;;;;;;;;;5006826;28;20053;-57
2023/12/21 04:00:00;;;;;;;23.10;4.97;;;;;;;;;;5015960;28;20041;-56
2023/12/21 04:02:28;;;;;;;29.85;4.35;;;;;;;;;;5011878;28;20053;-63
2023/12/21 04:04:55;;;;;;;22.45;4.68;;;;;;;;;;5009017;28;20484;-63
2023/12/21 04:07:29;;;;;;;26.67;4.47;;;;;;;;;;5008668;28;20522;-63
2023/12/21 04:09:56;;;;;;;;;;;;;;;;;;5010484;28;20611;-62
2023/12/21 04:12:30;;;;;;;29.27;5.10;;;;;;;;;;5002674;28;19925;-49
2023/12/21 04:14:57;;;;;;;37.80;5.90;;;;;;;;;;5010286;28;20422;-63
2023/12/21 04:17:25;;;;;;;31.75;5.65;;;;;;;;;;5010109;28;20528;-63
2023/12/21 04:19:59;;;;;;;28.02;5.45;;;;;;;;;;5006848;28;20067;-63
2023/12/21 04:22:26;;;;;;;;;;;;;;;;;;5006742;28;20057;-63
2023/12/21 04:25:07;;;;;;;18.63;4.40;;;;;;;;;;5004896;28;19930;-63
2023/12/21 04:27:34;;;;;;;26.85;5.20;;;;;;;;;;5011672;28;20472;-63
2023/12/21 04:30:08;;;;;;;34.17;5.70;;;;;;;;;;5014647;28;20069;-53
2023/12/21 04:32:36;;;;;;;31.10;5.45;;;;;;;;;;5012315;28;20045;-51
2023/12/21 04:35:10;;;;;;;34.97;5.95;;;;;;;;;;5006541;28;20115;-53
2023/12/21 04:37:38;;;;;;;48.70;5.63;;;;;;;;;;5009234;28;20065;-51
2023/12/21 04:40:06;;;;;;;35.35;6.63;;;;;;;;;;5005888;28;20057;-68
2023/12/21 04:42:42;;;;;;;45.78;6.05;;;;;;;;;;5010020;28;20144;-67
2023/12/21 04:45:09;;;;;;;40.17;7.05;;;;;;;;;;5008456;28;20053;-68
2023/12/21 04:47:44;;;;;;;40.38;5.70;;;;;;;;;;5009625;28;20501;-68
2023/12/21 04:50:11;;;;;;;34.53;6.25;;;;;;;;;;5003867;28;20103;-67
2023/12/21 04:52:38;;;;;;;43.20;5.68;;;;;;;;;;5010410;28;20402;-67
2023/12/21 04:55:12;;;;;;;38.17;5.63;;;;;;;;;;5007393;28;20065;-67
2023/12/21 04:57:40;;;;;;;47.42;6.03;;;;;;;;;;5009305;28;20717;-60
2023/12/21 05:00:14;;;;;;;53.50;7.32;;;;;;;;;;5013494;28;20115;-60
2023/12/21 05:02:41;;;;;;;48.30;6.53;;;;;;;;;;5003605;28;20508;-60
2023/12/21 05:05:09;;;;;;;39.80;6.32;;;;;;;;;;5016034;28;20080;-60
2023/12/21 05:07:43;;;;;;;57.08;6.68;;;;;;;;;;5007182;28;20057;-61
2023/12/21 05:10:10;;;;;;;;;;;;;;;;;;5008041;28;20630;-55
2023/12/21 05:12:44;;;;;;;50.30;6.45;;;;;;;;;;5009848;28;19929;-60
2023/12/21 05:15:12;;;;;;;53.08;7.55;;;;;;;;;;5007875;28;20054;-60
2023/12/21 05:17:47;;;;;;;51.20;7.30;;;;;;;;;;4990066;28;20968;-60
2023/12/21 05:20:15;;;;;;;69.50;6.55;;;;;;;;;;5009541;28;20403;-60
2023/12/21 05:22:49;;;;;;;65.38;7.18;;;;;;;;;;5000660;28;20455;-60
2023/12/21 05:25:33;;;;;;;60.20;6.72;;;;;;;;;;5002676;28;20536;-60
2023/12/21 05:28:00;;;;;;;61.38;7.35;;;;;;;;;;5007151;28;20077;-60
2023/12/21 05:30:34;;;;;;;50.90;8.88;;;;;;;;;;5007817;28;20056;-60
2023/12/21 05:33:01;;;;;;;51.65;6.60;;;;;;;;;;5011671;28;20421;-60
2023/12/21 05:35:28;;;;;;;58.95;7.85;;;;;;;;;;5005156;28;20057;-60
2023/12/21 05:38:02;;;;;;;56.72;6.70;;;;;;;;;;5007067;28;20064;-68
2023/12/21 05:40:29;;;;;;;73.82;8.30;;;;;;;;;;5005266;28;20046;-58
2023/12/21 05:42:57;;;;;;;58.38;7.85;;;;;;;;;;5004388;28;20056;-58
2023/12/21 05:45:30;;;;;;;63.42;7.38;;;;;;;;;;5010074;28;20057;-59
2023/12/21 05:47:58;;;;;;;67.05;6.95;;;;;;;;;;5011692;28;20069;-59
2023/12/21 05:50:32;;;;;;;45.45;6.30;;;;;;;;;;5001668;28;20343;-58
2023/12/21 05:53:00;;;;;;;44.92;6.68;;;;;;;;;;5005180;28;20550;-58
2023/12/21 05:55:27;;;;;;;52.85;7.10;;;;;;;;;;5006695;28;20138;-61
2023/12/21 05:58:01;;;;;;;53.40;6.72;;;;;;;;;;5014187;28;20529;-61
2023/12/21 06:00:28;;;;;;;43.72;5.95;;;;;;;;;;5014365;28;20057;-61
2023/12/21 06:03:02;;;;;;;39.42;6.53;;;;;;;;;;5007122;28;20057;-60
2023/12/21 06:05:29;;;;;;;40.03;5.28;;;;;;;;;;5015115;28;20563;-59
2023/12/21 06:07:56;;;;;;;47.25;7.40;;;;;;;;;;5006960;28;20093;-54
2023/12/21 06:10:30;;;;;;;49.28;6.15;;;;;;;;;;5003935;28;20107;-56
2023/12/21 06:12:57;;;;;;;42.08;7.00;;;;;;;;;;5009531;28;20490;-55
2023/12/21 06:15:25;;;;;;;61.80;7.32;;;;;;;;;;4995704;28;20085;-51
2023/12/21 06:18:19;;;;;;;43.63;5.57;;;;;;;;;;5001501;28;20064;-52
2023/12/21 06:21:13;;;;;;;48.38;5.85;;;;;;;;;;5007648;28;20054;-56
2023/12/21 06:24:07;;;;;;;52.38;5.53;;;;;;;;;;5010201;28;20066;-61
2023/12/21 06:27:02;;;;;;;43.53;4.97;;;;;;;;;;5004636;28;20056;-61
2023/12/21 06:29:48;;;;;;;51.45;6.03;;;;;;;;;;5003508;28;20077;-61
2023/12/21 06:32:42;;;;;;;56.38;4.90;;;;;;;;;;5010557;28;20058;-61
2023/12/21 06:35:29;;;;;;;39.22;5.28;;;;;;;;;;5008416;28;20137;-61
2023/12/21 06:38:23;;;;;;;54.47;4.60;;;;;;;;;;5010856;28;20565;-61
2023/12/21 06:41:12;;;;;;;;;;;;;;;;;;5001897;28;20049;-59
2023/12/21 06:44:05;;;;;;;41.63;5.25;;;;;;;;;;5008331;28;20043;-54
2023/12/21 06:46:59;;;;;;;36.65;4.80;;;;;;;;;;5005010;28;20057;-68
2023/12/21 06:49:46;;;;;;;32.40;4.25;;;;;;;;;;5008628;28;20068;-69
2023/12/21 06:52:40;;;;;;;32.95;5.05;;;;;;;;;;5009805;28;20049;-69
2023/12/21 06:55:27;;;;;;;29.92;4.18;;;;;;;;;;5007948;28;21225;-69
2023/12/21 06:58:41;;;;;;;39.80;5.68;;;;;;;;;;5002823;28;20038;-70
2023/12/21 07:01:28;;;;;;;35.15;4.50;;;;;;;;;;5001745;28;20609;-61
2023/12/21 07:04:22;;;;;;;22.05;4.28;;;;;;;;;;4994387;28;20057;-61
2023/12/21 07:07:16;;;;;;;22.77;3.90;;;;;;;;;;5004237;28;20107;-61
2023/12/21 07:10:04;;;;;;;31.35;4.13;;;;;;;;;;5007957;28;20045;-61
2023/12/21 07:12:58;;;;;;;27.02;3.92;;;;;;;;;;5007524;28;20049;-61
2023/12/21 07:15:46;;;;;;;22.08;3.83;;;;;;;;;;5004171;28;20080;-61
2023/12/21 07:18:39;;;;;;;22.95;3.63;;;;;;;;;;5015350;28;20056;-54
2023/12/21 07:21:26;;;;;;;14.15;2.80;;;;;;;;;;5008590;28;20146;-55
2023/12/21 07:24:27;;;;;;;17.73;3.03;;;;;;;;;;5012571;28;20131;-55
2023/12/21 07:27:15;;;;;;;13.38;2.55;;;;;;;;;;5012293;28;20542;-57
2023/12/21 07:30:15;;;;;;;8.45;2.10;;;;;;;;;;5008509;28;20054;-58
2023/12/21 07:33:12;;;;;;;12.65;2.80;;;;;;;;;;5004867;28;20061;-56
2023/12/21 07:36:07;;;;;;;8.77;1.65;;;;;;;;;;5011053;28;20062;-56
2023/12/21 07:39:00;;;;;;;9.45;1.88;;;;;;;;;;5000910;28;20049;-61
2023/12/21 07:41:48;;;;;;;9.93;2.40;;;;;;;;;;5004194;28;20068;-61
2023/12/21 07:44:42;;;;;;;11.70;1.67;;;;;;;;;;5004636;28;20053;-61
2023/12/21 07:47:29;;;;;;;3.85;1.60;;;;;;;;;;5009159;28;20507;-57
2023/12/21 07:50:23;;;;;;;3.05;1.38;;;;;;;;;;5003510;28;20050;-51
2023/12/21 07:53:10;;;;;;;1.48;0.80;;;;;;;;;;5006645;28;20085;-48
2023/12/21 07:56:04;;;;;;;5.07;2.10;;;;;;;;;;5002267;28;20061;-49
2023/12/21 07:58:52;;;;;;;4.97;1.20;;;;;;;;;;5005884;28;20053;-47
2023/12/21 08:01:46;;;;;;;4.15;1.88;;;;;;;;;;5002803;28;20623;-47
2023/12/21 08:04:32;;;;;;;4.00;1.63;;;;;;;;;;5001777;28;20556;-46
2023/12/21 08:07:26;;;;;;;1.70;1.02;;;;;;;;;;4997759;28;20237;-61
2023/12/21 08:10:14;;;;;;;3.55;1.30;;;;;;;;;;5001723;28;20115;-57
2023/12/21 08:13:13;;;;;;;6.07;1.30;;;;;;;;;;5002240;28;20057;-58
2023/12/21 08:15:59;;;;;;;3.30;0.95;;;;;;;;;;4995543;28;20056;-58
2023/12/21 08:18:55;;;;;;;4.07;1.33;;;;;;;;;;5007090;28;20140;-57
2023/12/21 08:21:42;;;;;;;1.67;0.70;;;;;;;;;;5002787;28;21247;-58
2023/12/21 08:24:42;;;;;;;0.40;0.40;;;;;;;;;;5005458;28;20061;-58
2023/12/21 08:27:29;;;;;;;1.17;0.90;;;;;;;;;;5008813;28;20532;-76
2023/12/21 08:30:23;;;;;;;1.05;0.95;;;;;;;;;;4994035;28;20061;-77
2023/12/21 08:33:11;;;;;;;0.50;0.50;;;;;;;;;;5001413;28;20089;-78
2023/12/21 08:36:04;;;;;;;1.25;1.13;;;;;;;;;;5000143;28;20068;-78
2023/12/21 08:38:52;;;;;;;2.45;0.65;;;;;;;;;;4994453;28;20161;-78
2023/12/21 08:41:45;;;;;;;0.90;0.80;;;;;;;;;;4992124;28;20444;-76
2023/12/21 08:44:34;;;;;;;0.68;0.68;;;;;;;;;;4994177;28;20788;-75
2023/12/21 08:47:29;;;;;;;0.35;0.35;;;;;;;;;;4999492;28;20092;-63
2023/12/21 08:50:18;;;;;;;0.40;0.40;;;;;;;;;;4984275;28;20204;-64
2023/12/21 08:53:11;;;;;;;1.92;0.52;;;;;;;;;;4991854;28;20057;-64
2023/12/21 08:55:58;;;;;;;0.65;0.60;;;;;;;;;;4988869;28;20459;-65
2023/12/21 08:58:56;;;;;;;1.25;0.47;;;;;;;;;;4994219;28;20065;-66
2023/12/21 09:01:41;;;;;;;1.15;0.70;;;;;;;;;;4993132;28;20057;-59
2023/12/21 09:04:35;;;;;;;0.20;0.20;;;;;;;;;;4995151;28;20398;-65
2023/12/21 09:07:24;;;;;;;0.50;0.50;;;;;;;;;;4992273;28;20508;-65
2023/12/21 09:10:17;;;;;;;1.45;0.38;;;;;;;;;;4990147;28;20925;-65
2023/12/21 09:13:05;;;;;;;0.40;0.40;;;;;;;;;;5002108;28;20128;-66
2023/12/21 09:15:58;;;;;;;0.28;0.28;;;;;;;;;;5008841;28;20281;-66
2023/12/21 09:18:45;;;;;;;0.40;0.40;;;;;;;;;;5007534;28;20104;-66
2023/12/21 09:21:40;;;;;;;0.35;0.35;;;;;;;;;;4992541;28;20059;-62
2023/12/21 09:24:33;;;;;;;0.10;0.10;;;;;;;;;;5006434;28;20073;-62
2023/12/21 09:27:34;;;;;;;0.30;0.30;;;;;;;;;;5002709;28;20060;-63
2023/12/21 09:30:25;;;;;;;0.20;0.20;;;;;;;;;;5003943;28;20528;-62
2023/12/21 09:33:15;;;;;;;0.20;0.20;;;;;;;;;;4999389;28;20501;-62
2023/12/21 09:36:02;;;;;;;0.30;0.30;;;;;;;;;;4996667;28;20050;-61
2023/12/21 09:38:56;;;;;;;0.45;0.20;;;;;;;;;;5005492;28;20056;-59
2023/12/21 09:41:43;;;;;;;0.32;0.32;;;;;;;;;;5001084;28;20563;-50
2023/12/21 09:44:37;;;;;;;0.38;0.38;;;;;;;;;;5001932;28;20055;-52
2023/12/21 09:47:25;;;;;;;0.30;0.30;;;;;;;;;;5004685;28;20068;-52
2023/12/21 09:50:19;;;;;;;0.40;0.40;;;;;;;;;;5000529;28;20271;-52
2023/12/21 09:53:06;;;;;;;0.30;0.30;;;;;;;;;;5003527;28;20061;-53
2023/12/21 09:56:00;;;;;;;0.20;0.20;;;;;;;;;;5005782;28;20054;-61
2023/12/21 09:58:48;;;;;;;0.70;0.25;;;;;;;;;;5003483;28;20288;-50
2023/12/21 10:01:41;;;;;;;0.20;0.20;;;;;;;;;;5000903;28;22354;-52
2023/12/21 10:04:28;;;;;;;0.20;0.20;;;;;;;;;;5004816;28;20046;-51
2023/12/21 10:07:23;;;;;;;0.20;0.20;;;;;;;;;;5007655;28;21981;-49
2023/12/21 10:10:10;;;;;;;0.32;0.30;;;;;;;;;;5005595;28;20570;-50
2023/12/21 10:13:04;;;;;;;1.85;0.20;;;;;;;;;;5006538;28;20060;-53
2023/12/21 10:15:57;;;;;;;0.20;0.20;;;;;;;;;;5007552;28;20132;-60
2023/12/21 10:18:51;;;;;;;0.40;0.40;;;;;;;;;;5005747;28;20062;-50
2023/12/21 10:21:41;;;;;;;0.28;0.28;;;;;;;;;;5005846;28;20069;-52
2023/12/21 10:24:42;;;;;;;0.20;0.20;;;;;;;;;;5003423;28;20091;-48
2023/12/21 10:27:29;;;;;;;0.30;0.30;;;;;;;;;;5003357;28;20063;-54
2023/12/21 10:30:24;;;;;;;0.40;0.40;;;;;;;;;;5002485;28;20063;-53
2023/12/21 10:33:12;;;;;;;1.70;0.40;;;;;;;;;;5003852;28;20505;-62
2023/12/21 10:36:05;;;;;;;1.17;0.30;;;;;;;;;;5003612;28;20061;-59
2023/12/21 10:38:52;;;;;;;0.85;0.25;;;;;;;;;;4999538;28;20127;-59
2023/12/21 10:41:46;;;;;;;0.75;0.22;;;;;;;;;;5001635;28;20133;-59
2023/12/21 10:44:33;;;;;;;0.80;0.43;;;;;;;;;;5002983;28;20077;-61
2023/12/21 10:47:40;;;;;;;0.20;0.20;;;;;;;;;;5007740;28;20057;-61
2023/12/21 10:50:34;;;;;;;0.20;0.20;;;;;;;;;;5000640;28;20061;-55
2023/12/21 10:53:23;;;;;;;0.67;0.40;;;;;;;;;;5005428;28;20540;-53
2023/12/21 10:56:16;;;;;;;0.22;0.22;;;;;;;;;;4998341;28;20332;-56
2023/12/21 10:59:05;;;;;;;0.30;0.30;;;;;;;;;;4997512;28;20116;-56
2023/12/21 11:01:57;;;;;;;0.40;0.40;;;;;;;;;;5006453;28;20056;-55
2023/12/21 11:04:45;;;;;;;0.20;0.20;;;;;;;;;;5001522;28;20562;-52
2023/12/21 11:07:39;;;;;;;0.30;0.30;;;;;;;;;;5007383;28;20064;-52
2023/12/21 11:10:33;;;;;;;0.80;0.38;;;;;;;;;;4994422;28;21000;-63
2023/12/21 11:13:27;;;;;;;0.30;0.30;;;;;;;;;;5001039;28;20479;-67
2023/12/21 11:16:35;;;;;;;1.55;0.30;;;;;;;;;;5016783;28;20058;-67
2023/12/21 11:19:39;;;;;;;0.95;0.30;;;;;;;;;;5014819;28;20476;-67
2023/12/21 11:22:27;;;;;;;0.40;0.30;;;;;;;;;;5014885;28;20076;-67
2023/12/21 11:25:30;;;;;;;0.43;0.35;;;;;;;;;;5001496;28;20683;-67
2023/12/21 11:28:24;;;;;;;0.22;0.22;;;;;;;;;;5008870;28;20050;-62
2023/12/21 11:31:18;;;;;;;0.40;0.40;;;;;;;;;;5016660;28;20080;-62
2023/12/21 11:34:12;;;;;;;5.35;0.80;;;;;;;;;;5005387;28;20064;-60
2023/12/21 11:37:24;;;;;;;1.55;0.70;;;;;;;;;;5015726;28;20081;-59
2023/12/21 11:40:14;;;;;;;1.50;0.47;;;;;;;;;;5014944;28;20050;-58
2023/12/21 11:43:07;;;;;;;4.88;0.60;;;;;;;;;;5017156;28;20042;-60
2023/12/21 11:45:56;;;;;;;2.55;0.65;;;;;;;;;;5013738;28;20579;-60
2023/12/21 11:48:50;;;;;;;5.25;0.60;;;;;;;;;;5015892;28;20069;-61
2023/12/21 11:51:49;;;;;;;3.92;0.98;;;;;;;;;;5008368;28;20058;-61
2023/12/21 11:54:47;;;;;;;4.72;0.88;;;;;;;;;;5011585;28;20065;-61
2023/12/21 11:57:39;;;;;;;3.20;0.98;;;;;;;;;;5012452;28;20156;-76
2023/12/21 12:00:34;;;;;;;2.72;0.95;;;;;;;;;;5010511;28;20154;-76
2023/12/21 12:03:23;;;;;;;5.50;1.00;;;;;;;;;;5011343;28;20122;-75
2023/12/21 12:06:17;;;;;;;6.43;1.23;;;;;;;;;;5010470;28;20068;-61
2023/12/21 12:09:04;;;;;;;8.50;1.23;;;;;;;;;;5011122;28;20065;-62
2023/12/21 12:11:59;;;;;;;13.15;1.30;;;;;;;;;;5008568;28;20892;-62
2023/12/21 12:14:53;;;;;;;11.38;1.60;;;;;;;;;;5011558;28;20614;-61
2023/12/21 12:17:43;;;;;;;10.55;1.80;;;;;;;;;;5011098;28;20050;-62
2023/12/21 12:20:44;;;;;;;16.45;2.03;;;;;;;;;;5011925;28;20061;-61
2023/12/21 12:23:38;;;;;;;19.88;2.95;;;;;;;;;;5013748;28;20107;-61
2023/12/21 12:26:39;;;;;;;24.70;2.67;;;;;;;;;;5010373;28;20567;-59
2023/12/21 12:29:33;;;;;;;25.45;2.75;;;;;;;;;;5013816;28;20497;-59
2023/12/21 12:32:21;;;;;;;22.65;3.10;;;;;;;;;;5010309;28;20678;-59
2023/12/21 12:35:14;;;;;;;24.13;3.28;;;;;;;;;;5009132;28;20440;-57
2023/12/21 12:38:04;;;;;;;26.05;3.22;;;;;;;;;;5012534;28;20057;-73
2023/12/21 12:40:58;;;;;;;27.10;3.30;;;;;;;;;;5010454;28;20053;-72
2023/12/21 12:43:46;;;;;;;28.98;2.75;;;;;;;;;;5016811;28;20049;-73
2023/12/21 12:46:39;;;;;;;15.48;2.45;;;;;;;;;;5018109;28;20111;-72
2023/12/21 12:49:36;;;;;;;27.48;3.45;;;;;;;;;;5015426;28;20061;-71
2023/12/21 12:52:30;;;;;;;21.80;2.55;;;;;;;;;;5021504;28;20665;-55
2023/12/21 12:55:20;;;;;;;16.25;1.65;;;;;;;;;;5018584;28;20049;-56
2023/12/21 12:58:14;;;;;;;8.38;1.23;;;;;;;;;;5014201;28;20057;-57
2023/12/21 13:01:11;;;;;;;11.15;1.50;;;;;;;;;;5013986;28;20084;-51
2023/12/21 13:03:59;;;;;;;9.07;1.25;;;;;;;;;;5015445;28;20058;-52
2023/12/21 13:06:53;;;;;;;9.05;1.27;;;;;;;;;;5013974;28;20500;-57
2023/12/21 13:09:39;;;;;;;6.80;1.25;;;;;;;;;;5012663;28;20054;-59
2023/12/21 13:12:36;;;;;;;2.35;1.02;;;;;;;;;;5013750;28;20575;-58
2023/12/21 13:15:24;;;;;;;4.63;1.10;;;;;;;;;;5013392;28;20059;-57
2023/12/21 13:18:17;;;;;;;6.97;1.10;;;;;;;;;;5013702;28;20061;-58
2023/12/21 13:21:04;;;;;;;9.43;1.13;;;;;;;;;;5014139;28;20501;-53
2023/12/21 13:24:13;;;;;;;6.78;1.35;;;;;;;;;;5013034;28;20485;-53
2023/12/21 13:27:06;;;;;;;7.03;1.13;;;;;;;;;;5014526;28;20402;-54
2023/12/21 13:30:01;;;;;;;6.22;1.00;;;;;;;;;;5015517;28;20053;-58
2023/12/21 13:32:48;;;;;;;6.78;1.00;;;;;;;;;;5013366;28;20057;-59
2023/12/21 13:35:42;;;;;;;9.05;1.20;;;;;;;;;;5011408;28;20049;-61
2023/12/21 13:38:29;;;;;;;7.45;1.10;;;;;;;;;;5013030;28;20496;-61
2023/12/21 13:41:23;;;;;;;6.57;1.15;;;;;;;;;;5000537;28;20053;-62
2023/12/21 13:44:10;;;;;;;4.15;0.80;;;;;;;;;;5001998;28;22118;-61
2023/12/21 13:47:04;;;;;;;10.57;1.52;;;;;;;;;;5010667;28;20072;-61
2023/12/21 13:49:52;;;;;;;12.35;1.40;;;;;;;;;;5014720;28;20080;-47
2023/12/21 13:52:46;;;;;;;7.13;1.30;;;;;;;;;;5013386;28;20479;-51
2023/12/21 13:55:34;;;;;;;6.70;1.20;;;;;;;;;;5013963;28;20045;-50
2023/12/21 13:58:27;;;;;;;8.05;1.77;;;;;;;;;;5015952;28;20148;-49
2023/12/21 14:01:21;;;;;;;12.32;1.45;;;;;;;;;;5010431;28;20132;-69
2023/12/21 14:04:08;;;;;;;6.85;1.33;;;;;;;;;;4999614;28;20049;-54
2023/12/21 14:06:56;;;;;;;13.15;1.73;;;;;;;;;;5011370;28;20085;-53
2023/12/21 14:09:49;;;;;;;11.48;1.80;;;;;;;;;;5007202;28;20053;-56
2023/12/21 14:12:37;;;;;;;16.00;2.28;;;;;;;;;;5011474;28;20165;-55
2023/12/21 14:15:30;;;;;;;9.15;1.63;;;;;;;;;;5008653;28;20425;-55
2023/12/21 14:18:17;;;;;;;11.60;1.90;;;;;;;;;;5010086;28;20127;-61
2023/12/21 14:21:11;;;;;;;11.60;1.83;;;;;;;;;;5013894;28;20060;-61
2023/12/21 14:24:05;;;;;;;13.95;1.92;;;;;;;;;;5008324;28;20115;-60
2023/12/21 14:26:59;;;;;;;10.85;2.20;;;;;;;;;;4995859;28;20544;-61
2023/12/21 14:29:53;;;;;;;10.13;2.03;;;;;;;;;;4997554;28;20417;-61
2023/12/21 14:32:40;;;;;;;10.27;1.73;;;;;;;;;;4993643;28;20492;-59
2023/12/21 14:35:34;;;;;;;13.05;2.60;;;;;;;;;;4992196;28;20052;-60
2023/12/21 14:38:21;;;;;;;6.47;2.08;;;;;;;;;;4993337;28;20054;-59
2023/12/21 14:41:15;;;;;;;11.07;1.88;;;;;;;;;;4995157;28;20163;-62
2023/12/21 14:44:05;;;;;;;15.05;2.38;;;;;;;;;;4996193;28;20050;-60
2023/12/21 14:46:58;;;;;;;12.75;2.90;;;;;;;;;;4996148;28;20116;-59
2023/12/21 14:49:46;;;;;;;12.57;2.45;;;;;;;;;;4994363;28;20061;-59
2023/12/21 14:52:40;;;;;;;15.00;2.58;;;;;;;;;;4993928;28;20184;-60
2023/12/21 14:55:27;;;;;;;11.65;2.78;;;;;;;;;;4993311;28;20061;-60
2023/12/21 14:58:21;;;;;;;11.50;2.13;;;;;;;;;;4996536;28;20108;-58
2023/12/21 15:01:15;;;;;;;9.52;2.35;;;;;;;;;;4994714;28;20062;-68
2023/12/21 15:04:03;;;;;;;12.73;2.75;;;;;;;;;;4990895;28;20061;-69
2023/12/21 15:06:57;;;;;;;12.38;2.45;;;;;;;;;;4992029;28;20560;-69
2023/12/21 15:09:45;;;;;;;16.58;2.97;;;;;;;;;;4990328;28;20646;-68
2023/12/21 15:12:38;;;;;;;14.65;3.28;;;;;;;;;;4993713;28;20525;-68
2023/12/21 15:15:25;;;;;;;14.15;3.08;;;;;;;;;;4995260;28;20171;-57
2023/12/21 15:18:19;;;;;;;13.93;3.58;;;;;;;;;;4989919;28;20116;-56
2023/12/21 15:21:07;;;;;;;11.15;2.38;;;;;;;;;;4993387;28;20493;-57
2023/12/21 15:24:07;;;;;;;9.88;2.40;;;;;;;;;;4998270;28;20509;-56
2023/12/21 15:27:04;;;;;;;13.98;2.80;;;;;;;;;;5009561;28;20081;-48
2023/12/21 15:29:50;;;;;;;9.35;2.70;;;;;;;;;;5013422;28;20245;-57
2023/12/21 15:32:47;;;;;;;13.82;3.13;;;;;;;;;;5011426;28;20064;-56
2023/12/21 15:35:31;;;;;;;9.95;2.63;;;;;;;;;;5015517;28;20140;-57
2023/12/21 15:38:25;;;;;;;7.68;2.97;;;;;;;;;;5000489;28;20057;-56
2023/12/21 15:41:16;;;;;;;7.20;3.28;;;;;;;;;;5013085;28;20453;-57
2023/12/21 15:44:11;;;;;;;8.38;2.97;;;;;;;;;;5015512;28;20689;-69
2023/12/21 15:46:57;;;;;;;10.93;2.97;;;;;;;;;;5012752;28;20096;-68
2023/12/21 15:49:51;;;;;;;8.10;2.40;;;;;;;;;;5015279;28;20572;-68
2023/12/21 15:52:40;;;;;;;11.40;2.63;;;;;;;;;;5008540;28;20199;-68
2023/12/21 15:55:32;;;;;;;7.45;2.03;;;;;;;;;;5012262;28;20089;-49
2023/12/21 15:58:20;;;;;;;5.70;2.72;;;;;;;;;;5009249;28;20042;-53
2023/12/21 16:01:16;;;;;;;8.02;2.80;;;;;;;;;;5010816;28;20123;-54
2023/12/21 16:04:08;;;;;;;10.80;2.60;;;;;;;;;;5011961;28;20045;-53
2023/12/21 16:07:03;;;;;;;8.68;2.63;;;;;;;;;;5013634;28;20133;-52
2023/12/21 16:09:53;;;;;;;9.88;2.53;;;;;;;;;;5009095;28;20228;-51
2023/12/21 16:12:44;;;;;;;12.18;2.95;;;;;;;;;;5009135;28;20307;-63